Time;durP1;ratioP1;P1;durP2;ratioP2;P2;SDS_P1;SDS_P2;PMS_P1;PMS_P2;Temp;Humidity;BMP_temperature;BMP_pressure;BME280_temperature;BME280_humidity;BME280_pressure;Samples;Min_cycle;Max_cycle;Signal;HPM_P1;HPM_P2
2023/07/20 00:00:53;;;;;;;96.03;91.50;;;;;;;25.42;38.58;101302.66;5043477;28;20049;-73
2023/07/20 00:03:24;;;;;;;;;;;;;;;25.40;38.65;101299.41;5048583;28;20139;-73
2023/07/20 00:05:51;;;;;;;95.72;91.32;;;;;;;25.37;38.65;101304.78;5044215;28;20343;-72
2023/07/20 00:08:17;;;;;;;96.45;91.93;;;;;;;25.35;38.45;101310.66;5040920;28;20457;-73
2023/07/20 00:10:43;;;;;;;97.30;92.55;;;;;;;25.34;38.48;101302.69;5047836;28;20038;-74
2023/07/20 00:13:12;;;;;;;94.72;90.43;;;;;;;25.32;38.69;101302.19;5042106;28;20357;-75
2023/07/20 00:15:37;;;;;;;97.35;92.70;;;;;;;25.31;38.57;101298.63;5045585;28;20049;-73
2023/07/20 00:18:04;;;;;;;96.80;92.25;;;;;;;25.29;38.32;101302.84;5041576;28;20033;-73
2023/07/20 00:20:29;;;;;;;96.53;91.97;;;;;;;25.27;38.51;101294.88;5047097;28;20112;-73
2023/07/20 00:22:57;;;;;;;96.10;91.40;;;;;;;25.26;39.09;101298.78;5040664;28;20052;-73
2023/07/20 00:25:23;;;;;;;95.50;90.97;;;;;;;25.24;38.44;101301.06;5045351;28;20041;-73
2023/07/20 00:27:48;;;;;;;99.45;94.88;;;;;;;25.22;38.52;101301.41;5043688;28;20049;-73
2023/07/20 00:30:14;;;;;;;95.90;91.47;;;;;;;25.20;38.52;101305.63;5040546;28;20056;-72
2023/07/20 00:32:39;;;;;;;101.18;95.93;;;;;;;25.19;38.51;101301.25;5049626;28;20060;-73
2023/07/20 00:35:05;;;;;;;94.35;89.85;;;;;;;25.16;38.92;101299.13;5047516;28;20094;-73
2023/07/20 00:37:31;;;;;;;100.53;95.57;;;;;;;25.14;38.67;101295.88;5044345;28;20153;-73
2023/07/20 00:39:56;;;;;;;96.47;91.93;;;;;;;25.12;38.56;101296.19;5047870;28;20065;-73
2023/07/20 00:42:22;;;;;;;96.15;91.45;;;;;;;25.10;38.51;101303.19;5043207;28;20037;-73
2023/07/20 00:44:47;;;;;;;98.82;93.72;;;;;;;25.08;39.06;101300.75;5041616;28;20076;-73
2023/07/20 00:47:13;;;;;;;95.68;91.03;;;;;;;25.07;39.00;101301.06;5050082;28;20041;-73
2023/07/20 00:49:39;;;;;;;96.80;91.68;;;;;;;25.05;38.84;101304.19;5050790;28;20029;-74
2023/07/20 00:52:07;;;;;;;98.32;92.93;;;;;;;25.03;39.13;101311.97;5039917;28;20038;-73
2023/07/20 00:54:33;;;;;;;97.38;92.25;;;;;;;25.01;39.04;101309.53;5046269;28;20075;-74
2023/07/20 00:57:00;;;;;;;92.95;88.32;;;;;;;24.99;38.76;101302.72;5043392;28;20052;-73
2023/07/20 00:59:26;;;;;;;96.88;92.40;;;;;;;24.96;39.23;101301.41;5044584;28;20033;-73
2023/07/20 01:01:52;;;;;;;94.18;89.78;;;;;;;24.94;38.79;101303.69;5041340;28;20872;-74
2023/07/20 01:04:18;;;;;;;94.93;90.20;;;;;;;24.93;38.81;101299.31;5041143;28;20040;-73
2023/07/20 01:07:32;;;;;;;96.78;92.25;;;;;;;24.92;38.85;101310.69;5044692;28;20037;-73
2023/07/20 01:10:10;;;;;;;94.35;89.95;;;;;;;24.88;39.20;101318.00;5028876;28;20029;-74
2023/07/20 01:12:41;;;;;;;95.50;90.88;;;;;;;24.85;38.84;101316.72;5044461;28;20040;-74
2023/07/20 01:15:08;;;;;;;94.15;89.13;;;;;;;24.82;38.64;101323.69;5048814;28;20045;-73
2023/07/20 01:17:36;;;;;;;94.72;89.93;;;;;;;24.82;38.89;101322.88;5046940;28;20029;-73
2023/07/20 01:20:02;;;;;;;;;;;;;;;24.79;38.54;101321.56;5043668;28;20040;-73
2023/07/20 01:22:51;;;;;;;90.03;85.55;;;;;;;24.76;38.80;101324.19;5042537;28;19917;-73
2023/07/20 01:25:41;;;;;;;92.15;87.55;;;;;;;24.73;39.40;101322.06;5043549;28;20092;-73
2023/07/20 01:28:48;;;;;;;95.30;89.70;;;;;;;24.71;38.86;101318.81;5044171;28;20064;-73
2023/07/20 01:31:23;;;;;;;93.63;88.67;;;;;;;24.68;38.70;101313.94;5035280;28;20465;-73
2023/07/20 01:33:51;;;;;;;95.10;90.60;;;;;;;24.66;39.25;101322.53;5046433;28;20025;-73
2023/07/20 01:36:18;;;;;;;97.20;92.60;;;;;;;24.65;39.07;101320.13;5038531;28;20029;-73
2023/07/20 01:38:44;;;;;;;96.20;91.03;;;;;;;24.63;39.03;101325.97;5044684;28;20082;-73
2023/07/20 01:41:10;;;;;;;96.03;91.28;;;;;;;24.61;39.56;101323.50;5045213;28;20030;-73
2023/07/20 01:43:36;;;;;;;90.72;86.20;;;;;;;24.60;39.17;101323.84;5042591;28;20030;-73
2023/07/20 01:46:01;;;;;;;94.55;90.03;;;;;;;24.57;39.29;101330.84;5042405;28;20029;-73
2023/07/20 01:48:27;;;;;;;91.93;87.35;;;;;;;24.56;39.11;101325.63;5047579;28;20033;-73
2023/07/20 01:50:52;;;;;;;95.85;91.32;;;;;;;24.55;39.22;101335.88;5045450;28;20057;-73
2023/07/20 01:53:18;;;;;;;92.88;88.28;;;;;;;24.54;39.75;101334.22;5039790;28;20037;-73
2023/07/20 01:55:43;;;;;;;96.43;91.65;;;;;;;24.52;39.00;101331.00;5048133;28;20571;-74
2023/07/20 01:58:09;;;;;;;94.78;90.25;;;;;;;24.50;39.37;101332.47;5040262;28;20366;-73
2023/07/20 02:00:37;;;;;;;95.38;90.75;;;;;;;24.49;39.39;101334.38;5040518;28;20044;-73
2023/07/20 02:03:02;;;;;;;92.40;87.90;;;;;;;24.47;39.53;101344.97;5046189;28;20025;-74
2023/07/20 02:05:27;;;;;;;93.18;88.13;;;;;;;24.46;39.20;101342.50;5044943;28;20598;-73
2023/07/20 02:07:53;;;;;;;95.55;90.35;;;;;;;24.42;39.23;101336.81;5041166;28;20424;-74
2023/07/20 02:10:18;;;;;;;94.15;89.45;;;;;;;24.42;39.22;101345.09;5045064;28;20416;-74
2023/07/20 02:12:44;;;;;;;96.63;91.55;;;;;;;24.40;39.20;101337.09;5037915;28;20041;-74
2023/07/20 02:15:09;;;;;;;94.07;89.38;;;;;;;24.39;39.41;101340.19;5039828;28;20036;-73
2023/07/20 02:17:35;;;;;;;93.57;89.07;;;;;;;24.37;39.09;101339.72;5043277;28;20477;-73
2023/07/20 02:20:00;;;;;;;93.20;88.65;;;;;;;24.35;39.26;101341.97;5040573;28;20041;-73
2023/07/20 02:22:26;;;;;;;90.10;85.65;;;;;;;24.33;39.23;101353.34;5049288;28;20040;-74
2023/07/20 02:24:51;;;;;;;93.65;88.97;;;;;;;24.31;39.41;101347.31;5040180;28;20037;-73
2023/07/20 02:27:17;;;;;;;94.45;89.55;;;;;;;24.29;39.28;101346.84;5042662;28;20084;-74
2023/07/20 02:29:42;;;;;;;96.00;91.32;;;;;;;24.29;39.66;101349.59;5038653;28;20028;-74
2023/07/20 02:32:09;;;;;;;95.00;90.13;;;;;;;24.27;39.49;101351.88;5038838;28;20033;-74
2023/07/20 02:34:35;;;;;;;89.30;84.68;;;;;;;24.25;39.87;101353.31;5040036;28;20087;-73
2023/07/20 02:37:01;;;;;;;97.93;93.13;;;;;;;24.22;39.99;101352.03;5038904;28;20501;-74
2023/07/20 02:39:29;;;;;;;95.50;90.43;;;;;;;24.21;39.38;101355.88;5040271;28;20037;-74
2023/07/20 02:41:55;;;;;;;94.60;89.85;;;;;;;24.20;39.38;101359.78;5036455;28;20044;-74
2023/07/20 02:44:20;;;;;;;94.55;89.75;;;;;;;24.18;39.34;101356.53;5045428;28;20033;-73
2023/07/20 02:46:46;;;;;;;98.93;94.03;;;;;;;24.16;39.77;101356.84;5043290;28;20060;-73
2023/07/20 02:49:11;;;;;;;95.93;90.95;;;;;;;24.15;39.71;101355.22;5045722;28;20398;-73
2023/07/20 02:51:37;;;;;;;93.03;88.03;;;;;;;24.13;39.41;101360.25;5046715;28;20045;-73
2023/07/20 02:54:03;;;;;;;93.32;88.47;;;;;;;24.11;39.85;101353.44;5039155;28;20268;-73
2023/07/20 02:56:29;;;;;;;93.28;88.50;;;;;;;24.10;39.39;101357.34;5042337;28;20030;-73
2023/07/20 02:58:54;;;;;;;92.45;87.57;;;;;;;24.07;39.52;101363.50;5039730;28;20052;-73
2023/07/20 03:01:20;;;;;;;90.28;85.78;;;;;;;24.06;39.75;101359.09;5041655;28;20037;-73
2023/07/20 03:03:46;;;;;;;91.60;86.80;;;;;;;24.05;39.65;101365.75;5038210;28;20400;-73
2023/07/20 03:06:15;;;;;;;91.25;86.63;;;;;;;24.04;39.60;101364.94;5041904;28;20512;-73
2023/07/20 03:08:47;;;;;;;94.57;89.78;;;;;;;24.01;39.74;101371.06;5037274;28;20167;-72
2023/07/20 03:11:13;;;;;;;93.75;88.90;;;;;;;24.01;39.78;101373.84;5038234;28;20488;-73
2023/07/20 03:13:39;;;;;;;95.00;89.88;;;;;;;24.00;39.65;101374.19;5047012;28;20085;-73
2023/07/20 03:16:04;;;;;;;93.28;88.68;;;;;;;23.97;40.00;101381.16;5042272;28;20029;-72
2023/07/20 03:18:30;;;;;;;91.53;86.95;;;;;;;23.96;39.86;101385.03;5042009;28;20040;-73
2023/07/20 03:20:55;;;;;;;92.60;87.90;;;;;;;23.95;39.82;101377.88;5037915;28;20057;-73
2023/07/20 03:23:20;;;;;;;94.63;89.80;;;;;;;23.92;39.50;101379.34;5044696;28;20472;-72
2023/07/20 03:25:46;;;;;;;92.05;87.45;;;;;;;23.91;39.53;101388.75;5040021;28;20041;-73
2023/07/20 03:28:11;;;;;;;90.30;85.70;;;;;;;23.90;39.97;101394.56;5040053;28;20049;-72
2023/07/20 03:30:36;;;;;;;92.93;88.38;;;;;;;23.89;40.06;101392.94;5038071;28;20479;-72
2023/07/20 03:33:03;;;;;;;88.93;84.32;;;;;;;23.87;40.05;101393.28;5043688;28;20496;-73
2023/07/20 03:35:28;;;;;;;90.03;85.05;;;;;;;23.85;39.67;101391.97;5038128;28;21156;-73
2023/07/20 03:37:53;;;;;;;92.38;87.78;;;;;;;23.83;39.79;101397.78;5039297;28;20108;-73
2023/07/20 03:40:19;;;;;;;91.70;87.07;;;;;;;23.82;39.64;101390.66;5040572;28;20035;-73
2023/07/20 03:42:44;;;;;;;91.93;87.28;;;;;;;23.80;39.76;101392.91;5040023;28;20468;-73
2023/07/20 03:45:10;;;;;;;89.68;84.88;;;;;;;23.78;40.02;101384.13;5040674;28;20068;-73
2023/07/20 03:47:35;;;;;;;88.97;84.68;;;;;;;23.77;40.15;101387.22;5045808;28;20034;-73
2023/07/20 03:50:01;;;;;;;88.30;83.70;;;;;;;23.74;39.94;101389.47;5040405;28;20064;-72
2023/07/20 03:52:26;;;;;;;93.25;88.43;;;;;;;23.73;40.16;101392.53;5043097;28;20146;-73
2023/07/20 03:54:51;;;;;;;90.38;85.47;;;;;;;23.71;40.18;101392.84;5047539;28;20056;-73
2023/07/20 03:57:17;;;;;;;88.82;84.53;;;;;;;23.69;40.17;101386.81;5049098;28;20044;-73
2023/07/20 03:59:46;;;;;;;87.95;83.57;;;;;;;23.68;40.10;101389.88;5042280;28;20104;-73
2023/07/20 04:02:11;;;;;;;90.03;85.43;;;;;;;23.65;39.88;101391.31;5040354;28;20051;-73
2023/07/20 04:04:37;;;;;;;85.55;81.45;;;;;;;23.65;40.08;101393.28;5049782;28;20132;-73
2023/07/20 04:07:02;;;;;;;90.80;85.85;;;;;;;23.63;40.06;101398.28;5039823;28;20393;-73
2023/07/20 04:09:28;;;;;;;81.20;76.97;;;;;;;23.61;39.92;101403.28;5042763;28;20175;-73
2023/07/20 04:11:54;;;;;;;81.82;77.63;;;;;;;23.60;39.92;101412.72;5048262;28;20029;-73
2023/07/20 04:14:19;;;;;;;81.53;77.50;;;;;;;23.58;39.83;101399.22;5049179;28;20049;-73
2023/07/20 04:16:46;;;;;;;86.95;82.80;;;;;;;23.55;39.88;101408.13;5040992;28;20037;-73
2023/07/20 04:19:12;;;;;;;83.65;79.38;;;;;;;23.53;39.93;101397.41;5040568;28;20084;-72
2023/07/20 04:21:41;;;;;;;85.63;81.53;;;;;;;23.52;40.36;101403.25;5042273;28;20033;-73
2023/07/20 04:24:06;;;;;;;84.80;80.70;;;;;;;23.52;39.97;101403.25;5042391;28;20038;-73
2023/07/20 04:26:32;;;;;;;82.28;78.35;;;;;;;23.49;40.21;101395.63;5047798;28;20091;-71
2023/07/20 04:28:59;;;;;;;86.03;81.72;;;;;;;23.47;39.91;101398.69;5048248;28;20049;-73
2023/07/20 04:31:25;;;;;;;81.00;77.00;;;;;;;23.46;40.33;101396.22;5041985;28;20124;-72
2023/07/20 04:33:50;;;;;;;80.13;76.30;;;;;;;23.45;40.08;101391.84;5043989;28;20112;-73
2023/07/20 04:36:19;;;;;;;80.70;76.80;;;;;;;23.43;39.92;101396.84;5045454;28;20075;-72
2023/07/20 04:38:44;;;;;;;;;;;;;;;23.41;39.95;101393.59;5045015;28;20068;-73
2023/07/20 04:41:11;;;;;;;79.57;75.78;;;;;;;23.38;40.30;101396.97;5039650;28;19963;-73
2023/07/20 04:43:41;;;;;;;80.50;76.70;;;;;;;23.37;40.35;101403.63;5044916;28;20025;-74
2023/07/20 04:46:06;;;;;;;80.40;76.25;;;;;;;23.34;40.03;101407.84;5044761;28;20045;-74
2023/07/20 04:48:31;;;;;;;79.70;75.90;;;;;;;23.33;40.35;101411.69;5041444;28;20373;-73
2023/07/20 04:50:57;;;;;;;81.65;77.90;;;;;;;23.32;40.16;101410.91;5047798;28;20047;-74
2023/07/20 04:53:22;;;;;;;82.43;78.63;;;;;;;23.29;40.49;101408.78;5036546;28;20111;-73
2023/07/20 04:55:50;;;;;;;80.30;76.50;;;;;;;23.28;40.28;101401.63;5043848;28;20496;-73
2023/07/20 04:58:16;;;;;;;82.90;79.03;;;;;;;23.26;40.35;101395.63;5045296;28;20552;-73
2023/07/20 05:00:42;;;;;;;84.25;80.25;;;;;;;23.25;40.26;101395.91;5039690;28;20276;-74
2023/07/20 05:03:07;;;;;;;84.57;80.43;;;;;;;23.24;40.25;101399.81;5037075;28;20041;-74
2023/07/20 05:05:33;;;;;;;82.38;78.20;;;;;;;23.22;40.47;101402.06;5037450;28;20041;-74
2023/07/20 05:07:58;;;;;;;80.50;76.70;;;;;;;23.21;40.37;101405.94;5048310;28;20029;-74
2023/07/20 05:10:24;;;;;;;79.28;75.63;;;;;;;23.20;40.68;101402.38;5051192;28;20034;-74
2023/07/20 05:12:49;;;;;;;80.32;76.38;;;;;;;23.19;40.67;101409.00;5052032;28;20532;-74
2023/07/20 05:15:15;;;;;;;82.00;78.10;;;;;;;23.18;40.24;101410.13;5051286;28;20531;-74
2023/07/20 05:17:40;;;;;;;77.28;73.68;;;;;;;23.18;40.69;101414.81;5029941;28;20446;-72
2023/07/20 05:20:06;;;;;;;81.13;77.32;;;;;;;23.17;40.63;101418.72;5041526;28;20041;-73
2023/07/20 05:22:32;;;;;;;78.82;75.22;;;;;;;23.15;41.03;101424.53;5051425;28;20040;-72
2023/07/20 05:24:57;;;;;;;78.20;74.50;;;;;;;23.14;40.71;101420.16;5051717;28;20045;-72
2023/07/20 05:27:22;;;;;;;77.95;74.25;;;;;;;23.14;40.67;101424.84;5049288;28;20041;-72
2023/07/20 05:29:48;;;;;;;82.05;78.10;;;;;;;23.13;41.08;101426.78;5048549;28;20087;-72
2023/07/20 05:32:14;;;;;;;80.40;76.60;;;;;;;23.13;41.10;101424.03;5049862;28;20032;-72
2023/07/20 05:34:39;;;;;;;80.03;76.22;;;;;;;23.12;40.93;101427.91;5050644;28;20037;-71
2023/07/20 05:37:05;;;;;;;81.65;77.60;;;;;;;23.13;40.55;101423.22;5032714;28;20048;-72
2023/07/20 05:39:32;;;;;;;80.05;76.38;;;;;;;23.13;40.88;101423.22;5051864;28;20465;-71
2023/07/20 05:41:58;;;;;;;78.32;74.75;;;;;;;23.11;40.91;101424.34;5032225;28;20044;-71
2023/07/20 05:44:23;;;;;;;78.75;75.05;;;;;;;23.11;41.10;101421.59;5031577;28;20030;-72
2023/07/20 05:46:48;;;;;;;82.07;78.22;;;;;;;23.13;40.65;101423.22;5046602;28;20567;-73
2023/07/20 05:49:14;;;;;;;82.07;77.95;;;;;;;23.13;40.77;101420.47;5050041;28;20140;-73
2023/07/20 05:51:39;;;;;;;81.25;77.15;;;;;;;23.13;40.40;101418.50;5038289;28;20114;-73
2023/07/20 05:54:05;;;;;;;82.07;78.30;;;;;;;23.13;40.53;101414.94;5043054;28;20469;-73
2023/07/20 05:56:30;;;;;;;80.38;76.57;;;;;;;23.13;40.47;101412.19;5051161;28;20029;-73
2023/07/20 05:58:56;;;;;;;80.18;76.38;;;;;;;23.13;40.83;101417.69;5050984;28;20366;-73
2023/07/20 06:01:21;;;;;;;81.43;77.60;;;;;;;23.15;40.62;101427.28;5044336;28;20911;-73
2023/07/20 06:03:47;;;;;;;77.97;74.45;;;;;;;23.14;40.73;101422.09;5050461;28;20025;-74
2023/07/20 06:06:12;;;;;;;80.15;76.07;;;;;;;23.13;40.51;101423.22;5047488;28;20048;-74
2023/07/20 06:08:38;;;;;;;78.53;74.97;;;;;;;23.12;41.17;101422.41;5049127;28;20063;-72
2023/07/20 06:11:03;;;;;;;86.00;82.18;;;;;;;23.11;41.40;101420.78;5047934;28;20039;-73
2023/07/20 06:13:29;;;;;;;82.70;78.97;;;;;;;23.09;40.80;101429.34;5035934;28;20041;-72
2023/07/20 06:15:55;;;;;;;80.63;77.03;;;;;;;23.10;41.15;101432.91;5032655;28;20041;-72
2023/07/20 06:18:23;;;;;;;81.72;78.00;;;;;;;23.10;41.24;101430.16;5045862;28;20045;-72
2023/07/20 06:20:52;;;;;;;78.23;74.73;;;;;;;23.11;41.37;101434.56;5049703;28;20400;-73
2023/07/20 06:23:19;;;;;;;79.10;75.50;;;;;;;23.11;40.79;101435.38;5048841;28;20919;-73
2023/07/20 06:25:45;;;;;;;80.72;76.93;;;;;;;23.14;41.10;101436.69;5043986;28;20030;-72
2023/07/20 06:28:10;;;;;;;79.15;75.55;;;;;;;23.16;41.07;101441.88;5031100;28;20052;-72
2023/07/20 06:30:36;;;;;;;80.57;76.90;;;;;;;23.14;40.72;101439.44;5049924;28;20477;-72
2023/07/20 06:33:01;;;;;;;81.45;77.82;;;;;;;23.16;40.94;101447.38;5031390;28;20036;-72
2023/07/20 06:35:27;;;;;;;78.25;74.70;;;;;;;23.15;40.66;101435.56;5030412;28;20626;-72
2023/07/20 06:37:52;;;;;;;77.03;73.53;;;;;;;23.15;41.18;101438.31;5029287;28;20122;-72
2023/07/20 06:40:18;;;;;;;81.43;77.40;;;;;;;23.17;41.13;101432.50;5034193;28;20036;-73
2023/07/20 06:42:43;;;;;;;80.38;76.80;;;;;;;23.18;40.69;101439.63;5020336;28;20131;-71
2023/07/20 06:45:09;;;;;;;79.07;75.55;;;;;;;23.20;40.70;101426.34;5050004;28;20060;-72
2023/07/20 06:47:38;;;;;;;79.93;76.38;;;;;;;23.21;40.97;101428.81;5049823;28;20106;-72
2023/07/20 06:50:03;;;;;;;;;;;;;;;23.23;40.70;101429.28;5050766;28;20036;-72
2023/07/20 06:52:29;;;;;;;78.10;74.47;;;;;;;23.24;40.55;101436.44;5032284;28;19954;-72
2023/07/20 06:54:54;;;;;;;76.75;72.90;;;;;;;23.25;41.10;101446.34;5035184;28;20362;-72
2023/07/20 06:57:19;;;;;;;79.22;75.43;;;;;;;23.26;40.77;101439.72;5042566;28;20120;-72
2023/07/20 06:59:45;;;;;;;79.57;75.68;;;;;;;23.27;41.12;101444.09;5047572;28;20048;-72
2023/07/20 07:02:10;;;;;;;79.40;75.85;;;;;;;23.30;41.49;101445.41;5050133;28;20037;-72
2023/07/20 07:04:35;;;;;;;83.00;79.32;;;;;;;23.30;41.49;101445.41;5036193;28;20034;-73
2023/07/20 07:07:02;;;;;;;79.95;76.35;;;;;;;23.32;41.21;101438.47;5045020;28;20040;-79
2023/07/20 07:09:28;;;;;;;81.53;77.40;;;;;;;23.33;41.18;101450.28;5047913;28;20037;-72
2023/07/20 07:11:53;;;;;;;82.97;79.18;;;;;;;23.35;41.49;101437.03;5050241;28;20036;-71
2023/07/20 07:14:20;;;;;;;81.53;77.53;;;;;;;23.37;41.14;101447.75;5035876;28;20068;-71
2023/07/20 07:16:45;;;;;;;80.05;76.50;;;;;;;23.39;41.47;101445.50;5043484;28;20473;-73
2023/07/20 07:19:11;;;;;;;80.75;77.15;;;;;;;23.40;41.48;101445.16;5044267;28;20033;-72
2023/07/20 07:21:36;;;;;;;81.80;77.38;;;;;;;23.43;41.55;101444.53;5041755;28;20068;-72
2023/07/20 07:24:01;;;;;;;82.50;78.68;;;;;;;23.44;41.38;101448.94;5047052;28;20040;-73
2023/07/20 07:26:27;;;;;;;84.15;80.35;;;;;;;23.48;41.68;101457.38;5052025;28;20037;-72
2023/07/20 07:28:52;;;;;;;82.95;79.35;;;;;;;23.49;41.20;101448.81;5053165;28;20439;-73
2023/07/20 07:31:18;;;;;;;81.78;78.15;;;;;;;23.52;41.36;101450.94;5053212;28;20057;-72
2023/07/20 07:33:43;;;;;;;82.97;79.22;;;;;;;23.55;41.22;101458.56;5049711;28;20752;-72
2023/07/20 07:36:08;;;;;;;82.32;78.53;;;;;;;23.57;41.52;101454.72;5053265;28;20114;-71
2023/07/20 07:38:34;;;;;;;82.40;78.55;;;;;;;23.60;41.67;101454.06;5051558;28;20131;-71
2023/07/20 07:40:59;;;;;;;81.82;78.20;;;;;;;23.61;41.50;101455.69;5038926;28;20029;-71
2023/07/20 07:43:25;;;;;;;83.50;79.60;;;;;;;23.62;41.11;101452.63;5042062;28;20033;-71
2023/07/20 07:45:53;;;;;;;82.70;78.82;;;;;;;23.66;41.14;101447.28;5049948;28;20033;-73
2023/07/20 07:48:20;;;;;;;81.95;78.25;;;;;;;23.69;41.45;101455.78;5040447;28;20033;-78
2023/07/20 07:50:46;;;;;;;82.72;79.03;;;;;;;23.72;41.37;101465.38;5038836;28;20123;-72
2023/07/20 07:53:11;;;;;;;80.88;77.13;;;;;;;23.75;41.50;101468.31;5044392;28;20475;-72
2023/07/20 07:55:36;;;;;;;81.53;77.93;;;;;;;23.80;41.47;101466.56;5044542;28;20545;-72
2023/07/20 07:58:02;;;;;;;82.78;79.15;;;;;;;23.83;41.32;101476.97;5050819;28;20635;-72
2023/07/20 08:00:27;;;;;;;84.40;80.63;;;;;;;23.87;41.65;101470.53;5041098;28;20048;-73
2023/07/20 08:02:53;;;;;;;85.95;82.15;;;;;;;23.91;41.55;101467.94;5050490;28;20059;-72
2023/07/20 08:05:18;;;;;;;88.78;84.88;;;;;;;23.94;41.01;101468.13;5049943;28;20036;-73
2023/07/20 08:07:43;;;;;;;87.78;83.93;;;;;;;23.98;41.45;101468.31;5046505;28;20436;-72
2023/07/20 08:10:09;;;;;;;85.70;81.93;;;;;;;24.01;41.15;101464.91;5050787;28;20469;-72
2023/07/20 08:12:35;;;;;;;87.88;83.97;;;;;;;24.04;41.08;101464.31;5033745;28;20048;-72
2023/07/20 08:15:00;;;;;;;83.97;80.35;;;;;;;24.09;41.45;101475.19;5045675;28;20535;-72
2023/07/20 08:17:26;;;;;;;86.90;82.90;;;;;;;24.14;41.06;101471.47;5051148;28;20037;-72
2023/07/20 08:19:51;;;;;;;86.22;82.38;;;;;;;24.17;41.64;101482.72;5051409;28;20041;-72
2023/07/20 08:22:17;;;;;;;86.03;82.25;;;;;;;24.22;41.01;101470.72;5040256;28;20041;-73
2023/07/20 08:24:43;;;;;;;87.18;82.93;;;;;;;24.26;41.26;101468.13;5052375;28;20064;-72
2023/07/20 08:27:10;;;;;;;86.15;82.35;;;;;;;24.31;41.39;101465.22;5044540;28;20056;-72
2023/07/20 08:29:35;;;;;;;88.65;84.60;;;;;;;24.35;40.96;101467.03;5036263;28;20433;-73
2023/07/20 08:32:02;;;;;;;88.85;84.75;;;;;;;24.40;41.15;101466.88;5039876;28;20568;-72
2023/07/20 08:34:28;;;;;;;92.18;88.07;;;;;;;24.46;41.02;101469.53;5044055;28;20084;-73
2023/07/20 08:36:53;;;;;;;89.03;85.03;;;;;;;24.51;40.76;101467.44;5046919;28;20064;-73
2023/07/20 08:39:18;;;;;;;89.38;85.35;;;;;;;24.57;40.66;101462.59;5042208;28;20408;-72
2023/07/20 08:41:46;;;;;;;89.80;85.70;;;;;;;24.63;40.48;101468.78;5041363;28;20045;-77
2023/07/20 08:44:12;;;;;;;94.22;87.55;;;;;;;24.70;40.26;101463.63;5049999;28;20040;-73
2023/07/20 08:46:39;;;;;;;86.57;82.78;;;;;;;24.74;40.13;101459.06;5038594;28;20840;-75
2023/07/20 08:49:06;;;;;;;89.85;85.85;;;;;;;24.80;40.10;101463.31;5051292;28;20146;-73
2023/07/20 08:51:33;;;;;;;90.90;86.63;;;;;;;24.86;39.96;101461.22;5038457;28;20063;-73
2023/07/20 08:53:59;;;;;;;94.30;90.10;;;;;;;24.91;39.82;101459.09;5051207;28;20032;-73
2023/07/20 08:56:26;;;;;;;92.05;88.00;;;;;;;24.97;40.09;101465.28;5049317;28;20457;-74
2023/07/20 08:58:56;;;;;;;92.78;88.47;;;;;;;25.04;39.93;101466.44;5047881;28;20065;-74
2023/07/20 09:01:22;;;;;;;93.43;89.30;;;;;;;25.12;39.97;101466.75;5045644;28;20029;-74
2023/07/20 09:03:48;;;;;;;90.80;86.90;;;;;;;25.17;39.82;101467.44;5048277;28;20491;-73
2023/07/20 09:06:14;;;;;;;93.93;89.85;;;;;;;25.23;39.87;101463.41;5051180;28;20036;-73
2023/07/20 09:08:42;;;;;;;99.45;95.13;;;;;;;25.29;39.76;101458.50;5051858;28;20055;-73
2023/07/20 09:11:10;;;;;;;;;;;;;;;25.35;39.96;101464.69;5052147;28;20040;-74
2023/07/20 09:13:37;;;;;;;93.20;89.05;;;;;;;25.41;39.88;101452.34;5051160;28;19912;-74
2023/07/20 09:16:04;;;;;;;92.17;88.17;;;;;;;25.45;40.17;101456.91;5049522;28;20032;-74
2023/07/20 09:18:31;;;;;;;99.88;95.53;;;;;;;25.52;39.83;101455.56;5040517;28;20029;-74
2023/07/20 09:21:04;;;;;;;93.20;89.20;;;;;;;25.58;40.23;101460.63;5048231;28;20043;-73
2023/07/20 09:23:34;;;;;;;96.60;92.30;;;;;;;25.64;40.11;101459.31;5048002;28;20475;-72
2023/07/20 09:26:00;;;;;;;98.13;93.78;;;;;;;25.69;39.99;101461.09;5043527;28;20037;-72
2023/07/20 09:28:26;;;;;;;96.70;92.25;;;;;;;25.77;39.68;101456.69;5036644;28;20453;-71
2023/07/20 09:30:53;;;;;;;98.60;94.22;;;;;;;25.83;39.81;101458.97;5042534;28;20044;-72
2023/07/20 09:33:21;;;;;;;99.15;94.85;;;;;;;25.88;39.64;101450.50;5035320;28;20103;-72
2023/07/20 09:35:46;;;;;;;100.82;96.28;;;;;;;25.93;39.33;101449.53;5043591;28;20489;-72
2023/07/20 09:38:14;;;;;;;101.57;96.82;;;;;;;25.98;39.23;101441.03;5048536;28;20074;-71
2023/07/20 09:40:39;;;;;;;101.35;96.85;;;;;;;26.04;38.93;101436.13;5034053;28;20045;-72
2023/07/20 09:43:08;;;;;;;98.85;94.47;;;;;;;26.08;38.88;101440.69;5044674;28;20035;-72
2023/07/20 09:45:36;;;;;;;100.88;96.47;;;;;;;26.14;39.08;101438.53;5048978;28;20090;-72
2023/07/20 09:48:08;;;;;;;102.85;98.45;;;;;;;26.20;39.06;101441.94;5048549;28;20041;-72
2023/07/20 09:50:39;;;;;;;101.68;97.20;;;;;;;26.25;38.56;101450.06;5042072;28;20124;-72
2023/07/20 09:53:05;;;;;;;102.70;98.10;;;;;;;26.30;38.82;101449.88;5035608;28;20034;-72
2023/07/20 09:55:32;;;;;;;101.45;96.75;;;;;;;26.34;38.86;101436.97;5037264;28;20041;-72
2023/07/20 09:57:59;;;;;;;103.50;99.00;;;;;;;26.40;37.95;101440.38;5037948;28;20041;-72
2023/07/20 10:00:24;;;;;;;102.88;98.47;;;;;;;26.44;38.36;101433.03;5043551;28;20033;-72
2023/07/20 10:02:51;;;;;;;106.95;102.35;;;;;;;26.49;38.40;101441.16;5035306;28;20045;-72
2023/07/20 10:05:18;;;;;;;106.00;101.40;;;;;;;26.53;38.33;101440.19;5039696;28;20140;-71
2023/07/20 10:07:47;;;;;;;105.30;100.70;;;;;;;26.58;38.25;101441.13;5040201;28;20041;-72
2023/07/20 10:10:15;;;;;;;106.53;101.93;;;;;;;26.61;38.04;101432.13;5032680;28;20028;-72
2023/07/20 10:12:42;;;;;;;108.18;103.38;;;;;;;26.66;38.00;101426.41;5034895;28;20029;-72
2023/07/20 10:15:24;;;;;;;105.43;100.72;;;;;;;26.70;38.12;101430.94;5044551;28;20036;-72
2023/07/20 10:18:09;;;;;;;106.63;102.07;;;;;;;26.74;37.91;101436.63;5047593;28;20064;-72
2023/07/20 10:20:38;;;;;;;104.32;99.82;;;;;;;26.78;37.76;101432.03;5031271;28;20045;-72
2023/07/20 10:23:04;;;;;;;106.75;102.10;;;;;;;26.82;37.92;101433.00;5030423;28;20029;-72
2023/07/20 10:25:31;;;;;;;104.05;99.60;;;;;;;26.87;37.45;101427.25;5033539;28;20107;-72
2023/07/20 10:27:57;;;;;;;107.00;102.40;;;;;;;26.91;37.43;101425.44;5038316;28;20448;-72
2023/07/20 10:30:23;;;;;;;110.70;105.60;;;;;;;26.95;37.49;101420.00;5042556;28;20037;-72
2023/07/20 10:32:49;;;;;;;108.28;103.57;;;;;;;26.98;37.26;101428.47;5047114;28;20578;-73
2023/07/20 10:35:16;;;;;;;112.10;107.20;;;;;;;27.02;37.34;101428.59;5042385;28;20560;-72
2023/07/20 10:37:53;;;;;;;107.47;102.78;;;;;;;27.06;37.41;101424.00;5039298;28;20610;-72
2023/07/20 10:40:38;;;;;;;106.63;102.03;;;;;;;27.10;37.13;101418.59;5043103;28;20047;-73
2023/07/20 10:43:07;;;;;;;109.35;104.47;;;;;;;27.14;37.21;101422.31;5046432;28;20030;-73
2023/07/20 10:45:48;;;;;;;105.63;101.05;;;;;;;27.17;36.86;101410.56;5035515;28;20127;-73
2023/07/20 10:48:16;;;;;;;106.75;101.90;;;;;;;27.22;37.12;101412.34;5028354;28;20163;-72
2023/07/20 10:50:43;;;;;;;111.18;106.38;;;;;;;27.24;37.09;101407.25;5058444;28;20488;-72
2023/07/20 10:53:11;;;;;;;110.68;105.90;;;;;;;27.26;36.87;101410.50;5043064;28;20047;-72
2023/07/20 10:55:37;;;;;;;109.88;105.13;;;;;;;27.29;36.83;101410.63;5049448;28;20056;-72
2023/07/20 10:58:08;;;;;;;110.28;105.55;;;;;;;27.32;36.91;101407.19;5044618;28;20069;-72
2023/07/20 11:00:34;;;;;;;108.80;104.20;;;;;;;27.35;37.07;101414.00;5033392;28;20482;-72
2023/07/20 11:02:59;;;;;;;114.75;109.78;;;;;;;27.38;36.93;101408.56;5037551;28;20065;-72
2023/07/20 11:05:39;;;;;;;108.47;103.75;;;;;;;27.41;36.68;101402.34;5032048;28;20120;-72
2023/07/20 11:08:09;;;;;;;109.40;104.70;;;;;;;27.45;36.79;101396.13;5036563;28;20108;-72